createdAt,value
2018-09-27T00:00:23.094Z,10.33
2018-09-27T00:01:23.126Z,10.32
2018-09-27T00:02:23.182Z,10.26
2018-09-27T00:03:23.224Z,10.25
2018-09-27T00:04:23.257Z,10.12
2018-09-27T00:05:23.328Z,10.09
2018-09-27T00:06:23.353Z,10.19
2018-09-27T00:07:23.425Z,10.12
2018-09-27T00:08:23.461Z,10.04
2018-09-27T00:09:23.503Z,10.18
2018-09-27T00:10:23.552Z,10.12
2018-09-27T00:11:23.607Z,10.18
2018-09-27T00:12:23.658Z,10.18
2018-09-27T00:13:23.682Z,10.14
2018-09-27T00:14:23.737Z,10.22
2018-09-27T00:15:23.774Z,10.15
2018-09-27T00:16:23.824Z,10.22
2018-09-27T00:17:23.891Z,10.33
2018-09-27T00:18:23.922Z,10.26
2018-09-27T00:19:23.973Z,10.24
2018-09-27T00:20:24.012Z,10.22
2018-09-27T00:21:24.061Z,10.24
2018-09-27T00:22:24.122Z,10.26
2018-09-27T00:23:24.149Z,10.30
2018-09-27T00:24:24.226Z,10.19
2018-09-27T00:25:24.249Z,10.24
2018-09-27T00:26:24.293Z,10.30
2018-09-27T00:27:24.337Z,10.30
2018-09-27T00:28:24.386Z,10.22
2018-09-27T00:29:24.460Z,10.25
2018-09-27T00:30:24.497Z,10.19
2018-09-27T00:31:24.531Z,10.15
2018-09-27T00:32:24.577Z,10.19
2018-09-27T00:33:24.627Z,10.19
2018-09-27T00:34:24.699Z,10.17
2018-09-27T00:35:24.715Z,10.12
2018-09-27T00:36:24.761Z,10.12
2018-09-27T00:37:24.807Z,10.15
2018-09-27T00:38:24.865Z,10.15
2018-09-27T00:39:24.923Z,10.12
2018-09-27T00:40:24.947Z,10.17
2018-09-27T00:41:24.995Z,10.10
2018-09-27T00:42:25.047Z,10.14
2018-09-27T00:43:25.119Z,10.10
2018-09-27T00:44:25.138Z,10.07
2018-09-27T00:45:25.206Z,10.04
2018-09-27T00:46:25.230Z,10.07
2018-09-27T00:47:25.298Z,9.99
2018-09-27T00:48:25.322Z,10.00
2018-09-27T00:49:25.374Z,9.91
2018-09-27T00:50:25.417Z,9.93
2018-09-27T00:51:25.490Z,9.85
2018-09-27T00:52:25.511Z,9.83
2018-09-27T00:53:25.559Z,9.89
2018-09-27T00:54:25.605Z,9.85
2018-09-27T00:55:25.652Z,9.86
2018-09-27T00:56:25.727Z,9.89
2018-09-27T00:57:25.755Z,9.81
2018-09-27T00:58:25.791Z,9.86
2018-09-27T00:59:25.910Z,9.82
2018-09-27T01:00:25.888Z,9.91
2018-09-27T01:01:25.981Z,9.91
2018-09-27T01:02:26.003Z,9.88
2018-09-27T01:03:26.028Z,9.85
2018-09-27T01:04:26.073Z,9.91
2018-09-27T01:05:26.121Z,9.85
2018-09-27T01:06:26.218Z,9.83
2018-09-27T01:07:26.230Z,9.83
2018-09-27T01:08:26.269Z,9.83
2018-09-27T01:09:26.317Z,9.86
2018-09-27T01:10:26.359Z,9.88
2018-09-27T01:11:26.400Z,9.85
2018-09-27T01:12:26.475Z,9.83
2018-09-27T01:13:26.597Z,9.91
2018-09-27T01:14:26.545Z,9.81
2018-09-27T01:15:26.588Z,9.75
2018-09-27T01:16:26.641Z,9.79
2018-09-27T01:17:26.681Z,9.71
2018-09-27T01:18:26.746Z,9.75
2018-09-27T01:19:26.798Z,9.70
2018-09-27T01:20:26.827Z,9.71
2018-09-27T01:21:26.866Z,9.73
2018-09-27T01:22:26.913Z,9.70
2018-09-27T01:23:26.961Z,9.66
2018-09-27T01:24:27.028Z,9.63
2018-09-27T01:25:27.070Z,9.58
2018-09-27T01:26:27.126Z,9.58
2018-09-27T01:27:27.171Z,9.56
2018-09-27T01:28:27.195Z,9.56
2018-09-27T01:29:27.267Z,9.46
2018-09-27T01:30:27.289Z,9.46
2018-09-27T01:31:27.355Z,9.52
2018-09-27T01:32:27.392Z,9.49
2018-09-27T01:33:27.450Z,9.50
2018-09-27T01:34:27.472Z,9.46
2018-09-27T01:35:27.520Z,9.43
2018-09-27T01:36:27.569Z,9.49
2018-09-27T01:37:27.613Z,9.43
2018-09-27T01:38:27.678Z,9.46
2018-09-27T01:39:27.727Z,9.34
2018-09-27T01:40:27.760Z,9.34
2018-09-27T01:41:27.818Z,9.31
2018-09-27T01:42:27.852Z,9.30
2018-09-27T01:43:27.912Z,9.38
2018-09-27T01:44:27.960Z,9.42
2018-09-27T01:45:27.986Z,9.34
2018-09-27T01:46:28.106Z,9.35
2018-09-27T01:47:28.078Z,9.34
2018-09-27T01:48:28.158Z,9.27
2018-09-27T01:49:28.201Z,9.21
2018-09-27T01:50:28.331Z,9.24
2018-09-27T01:51:28.274Z,9.23
2018-09-27T01:52:28.322Z,9.32
2018-09-27T01:53:28.355Z,9.34
2018-09-27T01:54:28.421Z,9.25
2018-09-27T01:55:28.452Z,9.32
2018-09-27T01:56:28.512Z,9.31
2018-09-27T01:57:28.543Z,9.38
2018-09-27T01:58:28.588Z,9.32
2018-09-27T01:59:28.637Z,9.32
2018-09-27T02:00:28.703Z,9.35
2018-09-27T02:01:28.761Z,9.35
2018-09-27T02:02:28.779Z,9.39
2018-09-27T02:03:28.823Z,9.32
2018-09-27T02:04:28.869Z,9.40
2018-09-27T02:05:28.917Z,9.32
2018-09-27T02:06:28.993Z,9.32
2018-09-27T02:07:29.007Z,9.31
2018-09-27T02:08:29.056Z,9.34
2018-09-27T02:09:29.109Z,9.27
2018-09-27T02:10:29.153Z,9.28
2018-09-27T02:11:29.216Z,9.21
2018-09-27T02:12:29.238Z,9.21
2018-09-27T02:13:29.285Z,9.20
2018-09-27T02:14:29.341Z,9.24
2018-09-27T02:15:29.379Z,9.21
2018-09-27T02:16:29.445Z,9.28
2018-09-27T02:17:29.509Z,9.30
2018-09-27T02:18:29.525Z,9.30
2018-09-27T02:19:29.563Z,9.28
2018-09-27T02:20:29.615Z,9.28
2018-09-27T02:21:29.656Z,9.34
2018-09-27T02:22:29.733Z,9.30
2018-09-27T02:23:29.758Z,9.31
2018-09-27T02:24:29.801Z,9.35
2018-09-27T02:25:29.849Z,9.34
2018-09-27T02:26:29.889Z,9.34
2018-09-27T02:27:29.955Z,9.34
2018-09-27T02:28:29.984Z,9.40
2018-09-27T02:29:30.029Z,9.34
2018-09-27T02:30:30.074Z,9.42
2018-09-27T02:31:30.121Z,9.38
2018-09-27T02:32:30.185Z,9.31
2018-09-27T02:33:30.231Z,9.31
2018-09-27T02:34:30.366Z,9.31
2018-09-27T02:35:30.305Z,9.32
2018-09-27T02:36:30.376Z,9.40
2018-09-27T02:37:30.400Z,9.34
2018-09-27T02:38:30.477Z,9.39
2018-09-27T02:39:30.492Z,9.25
2018-09-27T02:40:30.535Z,9.28
2018-09-27T02:41:30.582Z,9.16
2018-09-27T02:42:30.629Z,9.21
2018-09-27T02:43:30.693Z,9.21
2018-09-27T02:44:30.723Z,9.21
2018-09-27T02:45:30.790Z,9.23
2018-09-27T02:46:30.818Z,9.21
2018-09-27T02:47:30.859Z,9.20
2018-09-27T02:48:30.922Z,9.32
2018-09-27T02:49:30.954Z,9.23
2018-09-27T02:50:31.019Z,9.27
2018-09-27T02:51:31.043Z,9.23
2018-09-27T02:52:31.091Z,9.16
2018-09-27T02:53:31.160Z,9.15
2018-09-27T02:54:31.203Z,9.18
2018-09-27T02:55:31.230Z,9.21
2018-09-27T02:56:31.277Z,9.15
2018-09-27T02:57:31.329Z,9.16
2018-09-27T02:58:31.368Z,9.21
2018-09-27T02:59:31.441Z,9.15
2018-09-27T03:00:31.460Z,9.23
2018-09-27T03:01:31.516Z,9.21
2018-09-27T03:02:31.556Z,9.16
2018-09-27T03:03:31.600Z,9.20
2018-09-27T03:04:31.670Z,9.25
2018-09-27T03:05:31.689Z,9.23
2018-09-27T03:06:31.750Z,9.18
2018-09-27T03:07:31.784Z,9.18
2018-09-27T03:08:31.837Z,9.20
2018-09-27T03:09:31.898Z,9.24
2018-09-27T03:10:31.940Z,9.25
2018-09-27T03:11:31.969Z,9.15
2018-09-27T03:12:32.044Z,9.25
2018-09-27T03:13:32.079Z,9.23
2018-09-27T03:14:32.134Z,9.23
2018-09-27T03:15:32.156Z,9.16
2018-09-27T03:16:32.225Z,9.23
2018-09-27T03:17:32.250Z,9.24
2018-09-27T03:18:32.295Z,9.13
2018-09-27T03:19:32.361Z,9.18
2018-09-27T03:20:32.387Z,9.13
2018-09-27T03:21:32.431Z,9.09
2018-09-27T03:22:32.477Z,9.05
2018-09-27T03:23:32.547Z,9.02
2018-09-27T03:24:32.589Z,9.18
2018-09-27T03:25:32.617Z,9.10
2018-09-27T03:26:32.683Z,9.01
2018-09-27T03:27:32.723Z,9.10
2018-09-27T03:28:32.763Z,9.05
2018-09-27T03:29:32.800Z,9.05
2018-09-27T03:30:32.848Z,9.04
2018-09-27T03:31:32.919Z,9.06
2018-09-27T03:32:32.941Z,9.09
2018-09-27T03:33:32.988Z,9.06
2018-09-27T03:34:33.033Z,8.99
2018-09-27T03:35:33.096Z,8.93
2018-09-27T03:36:33.160Z,8.96
2018-09-27T03:37:33.170Z,8.90
2018-09-27T03:38:33.217Z,8.93
2018-09-27T03:39:33.357Z,8.93
2018-09-27T03:40:33.378Z,8.96
2018-09-27T03:41:33.386Z,8.93
2018-09-27T03:42:33.400Z,8.90
2018-09-27T03:43:33.450Z,8.88
2018-09-27T03:44:33.497Z,8.88
2018-09-27T03:45:33.544Z,8.90
2018-09-27T03:46:33.605Z,8.88
2018-09-27T03:47:33.634Z,8.88
2018-09-27T03:48:33.677Z,8.87
2018-09-27T03:49:33.728Z,8.90
2018-09-27T03:50:33.769Z,8.88
2018-09-27T03:51:33.835Z,8.88
2018-09-27T03:52:33.884Z,8.96
2018-09-27T03:53:33.915Z,8.87
2018-09-27T03:54:33.954Z,8.88
2018-09-27T03:55:34.002Z,8.84
2018-09-27T03:56:34.049Z,8.88
2018-09-27T03:57:34.130Z,8.88
2018-09-27T03:58:34.148Z,8.86
2018-09-27T03:59:34.186Z,8.83
2018-09-27T04:00:34.233Z,8.81
2018-09-27T04:01:34.280Z,8.71
2018-09-27T04:02:34.343Z,8.72
2018-09-27T04:03:34.371Z,8.75
2018-09-27T04:04:34.441Z,8.62
2018-09-27T04:05:34.464Z,8.68
2018-09-27T04:06:34.508Z,8.63
2018-09-27T04:07:34.574Z,8.62
2018-09-27T04:08:34.601Z,8.68
2018-09-27T04:09:34.647Z,8.69
2018-09-27T04:10:34.701Z,8.65
2018-09-27T04:11:34.756Z,8.68
2018-09-27T04:12:34.840Z,8.65
2018-09-27T04:13:34.832Z,8.65
2018-09-27T04:14:34.889Z,8.66
2018-09-27T04:15:34.919Z,8.69
2018-09-27T04:16:34.969Z,8.68
2018-09-27T04:17:35.039Z,8.63
2018-09-27T04:18:35.086Z,8.55
2018-09-27T04:19:35.113Z,8.55
2018-09-27T04:20:35.154Z,8.68
2018-09-27T04:21:35.206Z,8.63
2018-09-27T04:22:35.269Z,8.58
2018-09-27T04:23:35.290Z,8.57
2018-09-27T04:24:35.345Z,8.58
2018-09-27T04:25:35.396Z,8.55
2018-09-27T04:26:35.455Z,8.58
2018-09-27T04:27:35.471Z,8.55
2018-09-27T04:28:35.536Z,8.47
2018-09-27T04:29:35.565Z,8.50
2018-09-27T04:30:35.612Z,8.54
2018-09-27T04:31:35.678Z,8.53
2018-09-27T04:32:35.705Z,8.60
2018-09-27T04:33:35.776Z,8.57
2018-09-27T04:34:35.794Z,8.53
2018-09-27T04:35:35.852Z,8.54
2018-09-27T04:36:35.886Z,8.50
2018-09-27T04:37:35.941Z,8.51
2018-09-27T04:38:35.994Z,8.47
2018-09-27T04:39:36.037Z,8.53
2018-09-27T04:40:36.071Z,8.51
2018-09-27T04:41:36.125Z,8.45
2018-09-27T04:42:36.191Z,8.45
2018-09-27T04:43:36.213Z,8.47
2018-09-27T04:44:36.258Z,8.53
2018-09-27T04:45:36.336Z,8.44
2018-09-27T04:46:36.365Z,8.45
2018-09-27T04:47:36.409Z,8.54
2018-09-27T04:48:36.485Z,8.48
2018-09-27T04:49:36.480Z,8.47
2018-09-27T04:50:36.530Z,8.50
2018-09-27T04:51:36.576Z,8.45
2018-09-27T04:52:36.647Z,8.40
2018-09-27T04:53:36.674Z,8.48
2018-09-27T04:54:36.754Z,8.50
2018-09-27T04:55:36.755Z,8.45
2018-09-27T04:56:36.802Z,8.45
2018-09-27T04:57:36.875Z,8.35
2018-09-27T04:58:36.921Z,8.39
2018-09-27T04:59:36.941Z,8.36
2018-09-27T05:00:36.984Z,8.33
2018-09-27T05:01:37.032Z,8.35
2018-09-27T05:02:37.140Z,8.35
2018-09-27T05:03:37.155Z,8.33
2018-09-27T05:04:37.169Z,8.26
2018-09-27T05:05:37.212Z,8.32
2018-09-27T05:06:37.260Z,8.28
2018-09-27T05:07:37.326Z,8.32
2018-09-27T05:08:38.292Z,8.37
2018-09-27T05:09:37.412Z,8.33
2018-09-27T05:10:37.462Z,8.32
2018-09-27T05:11:37.487Z,8.22
2018-09-27T05:12:37.550Z,8.18
2018-09-27T05:13:37.581Z,8.26
2018-09-27T05:14:37.630Z,8.22
2018-09-27T05:15:37.700Z,8.26
2018-09-27T05:16:37.728Z,8.18
2018-09-27T05:17:37.810Z,8.22
2018-09-27T05:18:37.807Z,8.21
2018-09-27T05:19:37.856Z,8.26
2018-09-27T05:20:37.977Z,8.20
2018-09-27T05:21:37.994Z,8.28
2018-09-27T05:22:38.027Z,8.26
2018-09-27T05:23:38.032Z,8.26
2018-09-27T05:24:38.082Z,8.22
2018-09-27T05:25:38.135Z,8.25
2018-09-27T05:26:38.173Z,8.28
2018-09-27T05:27:38.343Z,8.21
2018-09-27T05:28:39.092Z,8.18
2018-09-27T05:29:38.309Z,8.26
2018-09-27T05:30:38.354Z,8.21
2018-09-27T05:31:38.407Z,8.28
2018-09-27T05:32:38.527Z,8.28
2018-09-27T05:33:38.549Z,8.32
2018-09-27T05:34:38.545Z,8.32
2018-09-27T05:35:38.602Z,8.28
2018-09-27T05:36:38.629Z,8.33
2018-09-27T05:37:38.701Z,8.30
2018-09-27T05:38:38.740Z,8.28
2018-09-27T05:39:38.812Z,8.33
2018-09-27T05:40:38.812Z,8.22
2018-09-27T05:41:38.859Z,8.28
2018-09-27T05:42:38.927Z,8.22
2018-09-27T05:43:38.954Z,8.21
2018-09-27T05:44:38.993Z,8.30
2018-09-27T05:45:39.077Z,8.26
2018-09-27T05:46:39.155Z,8.18
2018-09-27T05:47:39.153Z,8.22
2018-09-27T05:48:39.200Z,8.28
2018-09-27T05:49:39.256Z,8.28
2018-09-27T05:50:39.268Z,8.17
2018-09-27T05:51:39.343Z,8.30
2018-09-27T05:52:39.360Z,8.22
2018-09-27T05:53:40.291Z,8.22
2018-09-27T05:54:39.465Z,8.30
2018-09-27T05:55:39.496Z,8.29
2018-09-27T05:56:39.540Z,8.30
2018-09-27T05:57:39.606Z,8.32
2018-09-27T05:58:39.652Z,8.37
2018-09-27T05:59:39.724Z,8.33
2018-09-27T06:00:39.738Z,8.42
2018-09-27T06:01:39.773Z,8.45
2018-09-27T06:02:39.817Z,8.50
2018-09-27T06:03:40.363Z,8.47
2018-09-27T06:04:39.957Z,8.48
2018-09-27T06:05:39.956Z,8.50
2018-09-27T06:06:40.006Z,8.53
2018-09-27T06:07:40.043Z,8.57
2018-09-27T06:08:40.091Z,8.63
2018-09-27T06:09:40.287Z,8.65
2018-09-27T06:10:40.211Z,8.68
2018-09-27T06:11:40.238Z,8.73
2018-09-27T06:12:40.275Z,8.73
2018-09-27T06:13:40.321Z,8.79
2018-09-27T06:14:40.365Z,8.83
2018-09-27T06:15:40.494Z,8.86
2018-09-27T06:16:40.472Z,8.91
2018-09-27T06:17:41.292Z,9.06
2018-09-27T06:18:40.549Z,9.16
2018-09-27T06:19:40.623Z,9.48
2018-09-27T06:20:40.664Z,9.46
2018-09-27T06:21:40.779Z,9.57
2018-09-27T06:22:40.756Z,9.89
2018-09-27T06:23:40.843Z,10.17
2018-09-27T06:24:40.827Z,10.70
2018-09-27T06:25:40.870Z,11.53
2018-09-27T06:26:40.950Z,12.44
2018-09-27T06:27:41.054Z,13.37
2018-09-27T06:28:41.030Z,14.24
2018-09-27T06:29:41.057Z,14.98
2018-09-27T06:30:41.142Z,15.48
2018-09-27T06:31:41.150Z,16.03
2018-09-27T06:32:41.208Z,16.65
2018-09-27T06:33:41.362Z,16.89
2018-09-27T06:34:41.294Z,17.11
2018-09-27T06:35:41.342Z,16.96
2018-09-27T06:36:41.397Z,16.33
2018-09-27T06:37:41.469Z,15.93
2018-09-27T06:38:41.581Z,15.59
2018-09-27T06:39:41.530Z,15.66
2018-09-27T06:40:41.592Z,15.74
2018-09-27T06:41:41.625Z,16.01
2018-09-27T06:42:41.678Z,16.33
2018-09-27T06:43:41.748Z,16.73
2018-09-27T06:44:41.872Z,17.06
2018-09-27T06:45:41.860Z,17.15
2018-09-27T06:46:41.874Z,16.62
2018-09-27T06:47:41.944Z,16.34
2018-09-27T06:48:41.993Z,16.06
2018-09-27T06:49:42.018Z,15.64
2018-09-27T06:50:42.146Z,15.42
2018-09-27T06:51:42.108Z,15.13
2018-09-27T06:52:42.187Z,14.91
2018-09-27T06:53:42.207Z,15.01
2018-09-27T06:54:42.289Z,15.15
2018-09-27T06:55:42.398Z,15.20
2018-09-27T06:56:42.366Z,15.48
2018-09-27T06:57:42.405Z,15.41
2018-09-27T06:58:42.452Z,15.13
2018-09-27T06:59:42.513Z,15.08
2018-09-27T07:00:42.591Z,15.05
2018-09-27T07:01:42.625Z,15.01
2018-09-27T07:02:42.701Z,14.94
2018-09-27T07:03:42.703Z,14.99
2018-09-27T07:04:42.823Z,15.02
2018-09-27T07:05:42.791Z,14.84
2018-09-27T07:06:42.841Z,14.84
2018-09-27T07:07:42.890Z,14.90
2018-09-27T07:08:42.973Z,14.88
2018-09-27T07:09:43.010Z,14.90
2018-09-27T07:10:43.045Z,14.88
2018-09-27T07:11:43.090Z,14.90
2018-09-27T07:12:43.199Z,14.72
2018-09-27T07:13:43.186Z,14.65
2018-09-27T07:14:43.328Z,14.64
2018-09-27T07:15:43.389Z,14.99
2018-09-27T07:16:43.331Z,15.74
2018-09-27T07:17:43.382Z,16.59
2018-09-27T07:18:43.446Z,17.44
2018-09-27T07:19:43.502Z,17.81
2018-09-27T07:20:43.568Z,18.43
2018-09-27T07:21:43.610Z,18.83
2018-09-27T07:22:43.627Z,19.35
2018-09-27T07:23:44.299Z,19.79
2018-09-27T07:24:43.748Z,20.00
2018-09-27T07:25:43.780Z,20.12
2018-09-27T07:26:43.875Z,20.38
2018-09-27T07:27:43.887Z,20.76
2018-09-27T07:28:43.930Z,21.16
2018-09-27T07:29:44.003Z,21.46
2018-09-27T07:30:44.037Z,21.82
2018-09-27T07:31:44.077Z,22.02
2018-09-27T07:32:44.176Z,22.22
2018-09-27T07:33:45.309Z,22.14
2018-09-27T07:34:44.251Z,22.13
2018-09-27T07:35:44.285Z,21.76
2018-09-27T07:36:44.471Z,21.63
2018-09-27T07:37:44.405Z,21.38
2018-09-27T07:38:44.503Z,21.30
2018-09-27T07:39:44.480Z,20.65
2018-09-27T07:40:44.532Z,20.79
2018-09-27T07:41:44.589Z,20.79
2018-09-27T07:42:44.669Z,21.09
2018-09-27T07:43:44.691Z,21.24
2018-09-27T07:44:44.739Z,21.71
2018-09-27T07:45:44.813Z,20.96
2018-09-27T07:46:44.844Z,20.99
2018-09-27T07:47:44.918Z,20.08
2018-09-27T07:48:44.950Z,20.62
2018-09-27T07:49:44.995Z,20.80
2018-09-27T07:50:45.047Z,21.02
2018-09-27T07:51:45.099Z,20.90
2018-09-27T07:52:45.175Z,21.08
2018-09-27T07:53:45.200Z,21.05
2018-09-27T07:54:45.399Z,21.08
2018-09-27T07:55:45.306Z,20.99
2018-09-27T07:56:45.362Z,21.26
2018-09-27T07:57:45.438Z,21.90
2018-09-27T07:58:45.470Z,21.94
2018-09-27T07:59:45.520Z,22.19
2018-09-27T08:00:45.562Z,21.48
2018-09-27T08:01:45.653Z,20.86
2018-09-27T08:02:45.730Z,20.16
2018-09-27T08:03:45.743Z,19.95
2018-09-27T08:04:45.770Z,20.12
2018-09-27T08:05:45.826Z,20.00
2018-09-27T08:06:45.873Z,20.24
2018-09-27T08:07:45.928Z,19.80
2018-09-27T08:08:46.011Z,19.73
2018-09-27T08:09:46.034Z,19.68
2018-09-27T08:10:46.123Z,19.84
2018-09-27T08:11:46.326Z,20.27
2018-09-27T08:12:46.188Z,20.72
2018-09-27T08:13:46.267Z,20.64
2018-09-27T08:14:46.331Z,21.11
2018-09-27T08:15:46.341Z,21.02
2018-09-27T08:16:46.404Z,20.58
2018-09-27T08:17:46.450Z,19.86
2018-09-27T08:18:46.508Z,19.11
2018-09-27T08:19:46.576Z,19.14
2018-09-27T08:20:46.677Z,19.63
2018-09-27T08:21:46.663Z,19.87
2018-09-27T08:22:46.709Z,19.69
2018-09-27T08:23:46.763Z,19.48
2018-09-27T08:24:46.842Z,19.97
2018-09-27T08:25:46.882Z,20.69
2018-09-27T08:26:46.918Z,21.26
2018-09-27T08:27:46.968Z,21.41
2018-09-27T08:28:47.025Z,21.82
2018-09-27T08:29:47.103Z,21.60
2018-09-27T08:30:47.174Z,21.48
2018-09-27T08:31:47.176Z,21.02
2018-09-27T08:32:47.228Z,20.51
2018-09-27T08:33:47.283Z,20.84
2018-09-27T08:34:47.355Z,20.86
2018-09-27T08:35:47.412Z,20.69
2018-09-27T08:36:47.438Z,20.10
2018-09-27T08:37:47.492Z,19.38
2018-09-27T08:38:47.635Z,19.36
2018-09-27T08:39:47.606Z,19.68
2018-09-27T08:40:47.675Z,19.83
2018-09-27T08:41:47.702Z,20.10
2018-09-27T08:42:47.757Z,20.24
2018-09-27T08:43:48.641Z,20.33
2018-09-27T08:44:48.007Z,20.65
2018-09-27T08:45:48.034Z,21.02
2018-09-27T08:46:47.967Z,20.49
2018-09-27T08:47:48.016Z,20.62
2018-09-27T08:48:48.069Z,20.41
2018-09-27T08:49:48.130Z,20.66
2018-09-27T08:50:48.194Z,20.08
2018-09-27T08:51:49.329Z,19.46
2018-09-27T08:52:48.285Z,19.18
2018-09-27T08:53:48.336Z,19.46
2018-09-27T08:54:48.393Z,20.03
2018-09-27T08:55:48.515Z,20.80
2018-09-27T08:56:48.514Z,21.53
2018-09-27T08:57:48.569Z,22.06
2018-09-27T08:58:48.615Z,22.50
2018-09-27T08:59:48.651Z,22.71
2018-09-27T09:00:48.703Z,20.77
2018-09-27T09:01:48.782Z,20.24
2018-09-27T09:02:48.832Z,20.66
2018-09-27T09:03:48.885Z,20.39
2018-09-27T09:04:48.920Z,19.58
2018-09-27T09:05:48.988Z,19.40
2018-09-27T09:06:49.023Z,19.32
2018-09-27T09:07:49.096Z,18.80
2018-09-27T09:08:49.131Z,18.80
2018-09-27T09:09:49.183Z,19.25
2018-09-27T09:10:49.233Z,19.63
2018-09-27T09:11:49.286Z,19.94
2018-09-27T09:12:49.359Z,20.43
2018-09-27T09:13:49.414Z,20.81
2018-09-27T09:14:49.446Z,21.36
2018-09-27T09:15:49.500Z,21.17
2018-09-27T09:16:49.584Z,20.50
2018-09-27T09:17:49.626Z,20.34
2018-09-27T09:18:49.659Z,20.02
2018-09-27T09:19:49.720Z,20.20
2018-09-27T09:20:49.772Z,20.02
2018-09-27T09:21:49.842Z,19.95
2018-09-27T09:22:49.896Z,19.43
2018-09-27T09:23:49.949Z,19.42
2018-09-27T09:24:49.986Z,19.76
2018-09-27T09:25:50.038Z,19.33
2018-09-27T09:26:50.082Z,19.06
2018-09-27T09:27:50.137Z,18.54
2018-09-27T09:28:50.225Z,18.47
2018-09-27T09:29:50.261Z,18.59
2018-09-27T09:30:50.309Z,18.62
2018-09-27T09:31:50.376Z,18.09
2018-09-27T09:32:50.404Z,18.02
2018-09-27T09:33:50.463Z,18.21
2018-09-27T09:34:50.531Z,18.47
2018-09-27T09:35:50.610Z,18.64
2018-09-27T09:36:50.611Z,17.97
2018-09-27T09:37:50.669Z,17.91
2018-09-27T09:38:50.721Z,17.66
2018-09-27T09:39:50.789Z,17.76
2018-09-27T09:40:50.824Z,17.81
2018-09-27T09:41:50.876Z,17.85
2018-09-27T09:42:51.026Z,17.66
2018-09-27T09:43:50.981Z,17.71
2018-09-27T09:44:51.035Z,17.54
2018-09-27T09:45:51.107Z,17.73
2018-09-27T09:46:51.139Z,17.11
2018-09-27T09:47:51.194Z,17.04
2018-09-27T09:48:51.243Z,17.07
2018-09-27T09:49:51.368Z,17.46
2018-09-27T09:50:51.369Z,18.24
2018-09-27T09:51:51.407Z,18.90
2018-09-27T09:52:51.453Z,18.34
2018-09-27T09:53:51.504Z,17.54
2018-09-27T09:54:51.560Z,17.40
2018-09-27T09:55:51.641Z,17.26
2018-09-27T09:56:51.718Z,17.33
2018-09-27T09:57:51.723Z,17.54
2018-09-27T09:58:51.787Z,17.76
2018-09-27T09:59:51.842Z,17.44
2018-09-27T10:00:51.874Z,17.22
2018-09-27T10:01:51.976Z,16.96
2018-09-27T10:02:51.973Z,17.14
2018-09-27T10:03:52.853Z,17.29
2018-09-27T10:04:52.101Z,17.46
2018-09-27T10:05:52.132Z,17.67
2018-09-27T10:06:52.193Z,17.41
2018-09-27T10:07:52.251Z,17.28
2018-09-27T10:08:52.367Z,17.14
2018-09-27T10:09:52.341Z,16.95
2018-09-27T10:10:52.394Z,17.13
2018-09-27T10:11:52.446Z,17.44
2018-09-27T10:12:52.521Z,17.51
2018-09-27T10:13:52.576Z,17.22
2018-09-27T10:14:52.608Z,17.06
2018-09-27T10:15:52.656Z,17.13
2018-09-27T10:16:52.701Z,17.00
2018-09-27T10:17:52.780Z,17.23
2018-09-27T10:18:52.804Z,17.54
2018-09-27T10:19:52.867Z,17.48
2018-09-27T10:20:52.908Z,17.63
2018-09-27T10:21:53.003Z,17.43
2018-09-27T10:22:53.160Z,17.47
2018-09-27T10:23:53.062Z,17.51
2018-09-27T10:24:53.115Z,17.50
2018-09-27T10:25:53.168Z,18.09
2018-09-27T10:26:53.230Z,18.34
2018-09-27T10:27:53.305Z,18.18
2018-09-27T10:28:53.322Z,18.00
2018-09-27T10:29:53.469Z,18.02
2018-09-27T10:30:53.434Z,18.03
2018-09-27T10:31:53.479Z,18.00
2018-09-27T10:32:53.555Z,18.04
2018-09-27T10:33:53.605Z,18.36
2018-09-27T10:34:53.634Z,18.57
2018-09-27T10:35:53.686Z,18.90
2018-09-27T10:36:53.805Z,19.43
2018-09-27T10:37:53.797Z,19.11
2018-09-27T10:38:53.873Z,18.67
2018-09-27T10:39:53.898Z,18.34
2018-09-27T10:40:53.953Z,18.22
2018-09-27T10:41:54.003Z,18.21
2018-09-27T10:42:54.066Z,18.02
2018-09-27T10:43:54.122Z,17.81
2018-09-27T10:44:54.183Z,17.63
2018-09-27T10:45:54.258Z,18.06
2018-09-27T10:46:54.273Z,18.40
2018-09-27T10:47:54.312Z,18.99
2018-09-27T10:48:54.372Z,19.24
2018-09-27T10:49:54.417Z,19.35
2018-09-27T10:50:54.491Z,19.87
2018-09-27T10:51:54.530Z,19.93
2018-09-27T10:52:54.575Z,20.23
2018-09-27T10:53:54.626Z,19.76
2018-09-27T10:54:54.694Z,19.35
2018-09-27T10:55:54.760Z,19.73
2018-09-27T10:56:54.787Z,19.90
2018-09-27T10:57:54.840Z,20.23
2018-09-27T10:58:54.891Z,20.16
2018-09-27T10:59:55.374Z,20.09
2018-09-27T11:00:55.027Z,20.16
2018-09-27T11:01:55.069Z,20.65
2018-09-27T11:02:55.246Z,21.21
2018-09-27T11:03:55.268Z,21.72
2018-09-27T11:04:55.214Z,22.14
2018-09-27T11:05:55.268Z,22.37
2018-09-27T11:06:55.357Z,22.62
2018-09-27T11:07:55.389Z,21.76
2018-09-27T11:08:55.427Z,21.24
2018-09-27T11:09:55.488Z,21.21
2018-09-27T11:10:55.598Z,20.03
2018-09-27T11:11:55.610Z,19.53
2018-09-27T11:12:55.642Z,19.20
2018-09-27T11:13:55.703Z,19.43
2018-09-27T11:14:55.751Z,19.78
2018-09-27T11:15:55.802Z,20.08
2018-09-27T11:16:55.898Z,20.27
2018-09-27T11:17:55.913Z,20.54
2018-09-27T11:18:55.981Z,21.16
2018-09-27T11:19:56.043Z,21.39
2018-09-27T11:20:56.084Z,20.68
2018-09-27T11:21:56.173Z,21.02
2018-09-27T11:22:56.209Z,21.29
2018-09-27T11:23:56.245Z,20.79
2018-09-27T11:24:56.299Z,20.83
2018-09-27T11:25:56.353Z,20.10
2018-09-27T11:26:56.409Z,19.38
2018-09-27T11:27:56.477Z,19.24
2018-09-27T11:28:56.576Z,19.13
2018-09-27T11:29:56.574Z,19.10
2018-09-27T11:30:56.625Z,19.21
2018-09-27T11:31:56.676Z,19.17
2018-09-27T11:32:56.765Z,18.84
2018-09-27T11:33:56.789Z,18.83
2018-09-27T11:34:56.839Z,19.06
2018-09-27T11:35:56.893Z,19.17
2018-09-27T11:36:56.951Z,19.40
2018-09-27T11:37:57.028Z,19.72
2018-09-27T11:38:57.078Z,19.70
2018-09-27T11:39:57.107Z,19.43
2018-09-27T11:40:57.165Z,19.60
2018-09-27T11:41:57.217Z,19.78
2018-09-27T11:42:57.312Z,20.00
2018-09-27T11:43:57.371Z,20.20
2018-09-27T11:44:57.376Z,20.80
2018-09-27T11:45:57.435Z,20.79
2018-09-27T11:46:57.486Z,20.90
2018-09-27T11:47:58.198Z,20.91
2018-09-27T11:48:57.657Z,21.16
2018-09-27T11:49:57.802Z,20.89
2018-09-27T11:50:57.713Z,21.11
2018-09-27T11:51:57.754Z,21.14
2018-09-27T11:52:57.818Z,20.81
2018-09-27T11:53:57.872Z,20.34
2018-09-27T11:54:57.946Z,20.59
2018-09-27T11:55:58.039Z,20.71
2018-09-27T11:56:58.052Z,20.62
2018-09-27T11:57:58.104Z,20.83
2018-09-27T11:58:58.200Z,20.34
2018-09-27T11:59:58.196Z,20.18
2018-09-27T12:00:58.280Z,20.24
2018-09-27T12:01:58.379Z,19.98
2018-09-27T12:02:58.357Z,19.80
2018-09-27T12:03:58.414Z,19.20
2018-09-27T12:04:58.468Z,19.23
2018-09-27T12:05:58.583Z,19.28
2018-09-27T12:06:58.574Z,18.97
2018-09-27T12:07:58.637Z,18.87
2018-09-27T12:08:58.685Z,19.13
2018-09-27T12:09:58.764Z,19.18
2018-09-27T12:10:58.819Z,19.36
2018-09-27T12:11:58.861Z,19.33
2018-09-27T12:12:58.912Z,19.68
2018-09-27T12:13:58.961Z,20.15
2018-09-27T12:14:59.023Z,20.65
2018-09-27T12:15:59.087Z,20.96
2018-09-27T12:16:59.174Z,21.38
2018-09-27T12:17:59.182Z,21.50
2018-09-27T12:18:59.236Z,20.91
2018-09-27T12:19:59.321Z,20.89
2018-09-27T12:20:59.337Z,20.43
2018-09-27T12:21:59.415Z,20.34
2018-09-27T12:22:59.487Z,20.12
2018-09-27T12:23:59.510Z,20.54
2018-09-27T12:24:59.560Z,21.01
2018-09-27T12:25:59.616Z,20.93
2018-09-27T12:26:59.667Z,20.66
2018-09-27T12:27:59.758Z,20.49
2018-09-27T12:28:59.784Z,20.86
2018-09-27T12:29:59.842Z,20.95
2018-09-27T12:31:00.476Z,20.77
2018-09-27T12:31:59.942Z,20.89
2018-09-27T12:33:00.025Z,20.96
2018-09-27T12:34:00.117Z,20.50
2018-09-27T12:35:00.110Z,20.38
2018-09-27T12:36:00.174Z,20.84
2018-09-27T12:37:00.229Z,21.26
2018-09-27T12:38:00.919Z,21.75
2018-09-27T12:39:00.383Z,22.10
2018-09-27T12:40:00.388Z,21.24
2018-09-27T12:41:00.443Z,21.34
2018-09-27T12:42:00.679Z,21.17
2018-09-27T12:43:00.614Z,21.24
2018-09-27T12:44:00.615Z,21.72
2018-09-27T12:45:00.725Z,21.76
2018-09-27T12:46:00.802Z,21.92
2018-09-27T12:47:00.829Z,21.81
2018-09-27T12:48:00.913Z,21.71
2018-09-27T12:49:00.937Z,21.14
2018-09-27T12:50:00.968Z,20.87
2018-09-27T12:51:01.108Z,20.83
2018-09-27T12:52:01.225Z,20.81
2018-09-27T12:53:01.387Z,20.86
2018-09-27T12:54:01.257Z,20.31
2018-09-27T12:55:01.261Z,20.68
2018-09-27T12:56:01.302Z,20.47
2018-09-27T12:57:01.373Z,20.50
2018-09-27T12:58:01.414Z,20.51
2018-09-27T12:59:01.470Z,20.90
2018-09-27T13:00:01.559Z,21.02
2018-09-27T13:01:01.609Z,21.19
2018-09-27T13:02:02.556Z,21.41
2018-09-27T13:03:01.808Z,21.34
2018-09-27T13:04:01.779Z,21.29